Main page
METAR-TAF:

METAR-TAF

Airports :

Manchester, England

Manchester Airport

latitude: 53-21N, longitude: 002-17W, elevation: 69 m

Current weather observation

The report was made 23 minutes ago, at 18:20 UTC
Wind 8 kt from the East, varying between Northeast and Southeast
Temperature 12°C
Humidity 54%
Pressure 1024 hPa
Visibility 10 km or more

METAR: EGCC 261820Z AUTO 09008KT 050V140 9999 NCD 12/03 Q1024 NOSIG

Time: 19:43 (18:43 UTC)

Forecast

The report was made 1 hour and 47 minutes ago, at 16:56 UTC
Forecast valid from 26 at 18 UTC to 27 at 24 UTC
Wind 9 kt from the East
Visibility 10 km or more
Few clouds at a height of 4000 ft
Probability 30% :
Temporary
from 27 at 03 UTC to 27 at 10 UTC
Visibility: 8000 m
Broken clouds at a height of 900 ft
Becoming
from 27 at 12 UTC to 27 at 15 UTC
Wind 10 kt from the Southeast
Becoming
from 27 at 21 UTC to 27 at 24 UTC
Visibility: 8000 m

TAF: EGCC 261656Z 2618/2724 08009KT 9999 FEW040 PROB30 TEMPO 2703/2710 8000 BKN009 BECMG 2712/2715 14010KT BECMG 2721/2724 8000

Weather observations and forecasts of more than 4000 airports (METAR and TAF reports).

The available stations are represented by yellow and red dots on the map.

Hover mouse over dot to see the name of the station.

Then click to see weather observations and forecasts.

To change the map : click on the green buttons with a black cross to zoom in, on the green button with a dash to zoom out, or on the green arrows for adjacent maps.


METAR-TAF: